sensor_id;sensor_type;location;lat;lon;timestamp;pressure;altitude;pressure_sealevel;temperature;humidity
64095;BME280;50353;51.420;5.682;2023-05-17T00:01:25;102157.19;;;11.30;75.61
64095;BME280;50353;51.420;5.682;2023-05-17T00:03:50;102156.47;;;11.47;75.11
64095;BME280;50353;51.420;5.682;2023-05-17T00:06:18;102155.53;;;11.69;74.28
64095;BME280;50353;51.420;5.682;2023-05-17T00:08:44;102158.31;;;11.45;74.52
64095;BME280;50353;51.420;5.682;2023-05-17T00:11:09;102161.09;;;11.42;75.54
64095;BME280;50353;51.420;5.682;2023-05-17T00:13:34;102164.03;;;10.92;76.79
64095;BME280;50353;51.420;5.682;2023-05-17T00:16:00;102165.31;;;11.26;75.56
64095;BME280;50353;51.420;5.682;2023-05-17T00:18:25;102160.66;;;11.10;75.96
64095;BME280;50353;51.420;5.682;2023-05-17T00:20:50;102165.56;;;10.97;76.19
64095;BME280;50353;51.420;5.682;2023-05-17T00:23:15;102165.63;;;10.96;76.04
64095;BME280;50353;51.420;5.682;2023-05-17T00:25:41;102167.78;;;11.30;74.63
64095;BME280;50353;51.420;5.682;2023-05-17T00:28:06;102170.09;;;10.95;75.93
64095;BME280;50353;51.420;5.682;2023-05-17T00:30:31;102168.34;;;10.94;76.63
64095;BME280;50353;51.420;5.682;2023-05-17T00:32:57;102171.75;;;10.76;77.02
64095;BME280;50353;51.420;5.682;2023-05-17T00:35:22;102170.81;;;10.77;76.56
64095;BME280;50353;51.420;5.682;2023-05-17T00:37:47;102167.50;;;10.72;77.32
64095;BME280;50353;51.420;5.682;2023-05-17T00:40:14;102170.91;;;10.52;78.03
64095;BME280;50353;51.420;5.682;2023-05-17T00:42:40;102167.50;;;10.72;78.08
64095;BME280;50353;51.420;5.682;2023-05-17T00:45:05;102161.91;;;10.79;77.43
64095;BME280;50353;51.420;5.682;2023-05-17T00:47:31;102167.53;;;10.70;77.06
64095;BME280;50353;51.420;5.682;2023-05-17T00:49:56;102170.94;;;10.96;76.65
64095;BME280;50353;51.420;5.682;2023-05-17T00:52:21;102173.84;;;10.90;77.10
64095;BME280;50353;51.420;5.682;2023-05-17T00:54:47;102172.38;;;10.82;76.64
64095;BME280;50353;51.420;5.682;2023-05-17T00:57:13;102163.59;;;11.25;75.83
64095;BME280;50353;51.420;5.682;2023-05-17T00:59:38;102168.91;;;11.03;76.24
64095;BME280;50353;51.420;5.682;2023-05-17T01:02:04;102171.28;;;10.64;78.26
64095;BME280;50353;51.420;5.682;2023-05-17T01:04:31;102167.13;;;10.81;76.44
64095;BME280;50353;51.420;5.682;2023-05-17T01:06:56;102172.81;;;10.48;78.30
64095;BME280;50353;51.420;5.682;2023-05-17T01:09:22;102171.81;;;10.27;78.98
64095;BME280;50353;51.420;5.682;2023-05-17T01:17:05;102176.94;;;10.31;79.06
64095;BME280;50353;51.420;5.682;2023-05-17T01:19:55;102167.78;;;10.17;79.75
64095;BME280;50353;51.420;5.682;2023-05-17T01:22:42;102167.78;;;10.17;79.81
64095;BME280;50353;51.420;5.682;2023-05-17T01:25:18;102163.78;;;10.54;77.98
64095;BME280;50353;51.420;5.682;2023-05-17T01:27:49;102165.03;;;10.20;79.59
64095;BME280;50353;51.420;5.682;2023-05-17T01:30:15;102165.38;;;10.10;80.40
64095;BME280;50353;51.420;5.682;2023-05-17T01:32:42;102162.97;;;10.04;80.31
64095;BME280;50353;51.420;5.682;2023-05-17T01:35:10;102160.56;;;9.98;80.36
64095;BME280;50353;51.420;5.682;2023-05-17T01:37:37;102166.28;;;10.33;80.05
64095;BME280;50353;51.420;5.682;2023-05-17T01:40:04;102166.97;;;10.40;79.03
64095;BME280;50353;51.420;5.682;2023-05-17T01:42:32;102172.63;;;10.29;78.13
64095;BME280;50353;51.420;5.682;2023-05-17T01:47:49;102176.34;;;10.00;79.81
64095;BME280;50353;51.420;5.682;2023-05-17T01:50:20;102170.41;;;9.93;79.18
64095;BME280;50353;51.420;5.682;2023-05-17T01:52:49;102170.03;;;9.78;81.51
64095;BME280;50353;51.420;5.682;2023-05-17T01:55:27;102169.53;;;10.18;79.53
64095;BME280;50353;51.420;5.682;2023-05-17T01:57:56;102171.41;;;10.14;79.36
64095;BME280;50353;51.420;5.682;2023-05-17T02:00:24;102170.53;;;9.90;80.82
64095;BME280;50353;51.420;5.682;2023-05-17T02:02:51;102173.38;;;9.84;80.62
64095;BME280;50353;51.420;5.682;2023-05-17T02:05:16;102172.09;;;9.95;79.63
64095;BME280;50353;51.420;5.682;2023-05-17T02:07:41;102169.06;;;9.81;78.18
64095;BME280;50353;51.420;5.682;2023-05-17T02:10:07;102171.81;;;9.53;80.17
64095;BME280;50353;51.420;5.682;2023-05-17T02:12:32;102174.28;;;9.82;80.39
64095;BME280;50353;51.420;5.682;2023-05-17T02:14:58;102177.44;;;9.69;80.76
64095;BME280;50353;51.420;5.682;2023-05-17T02:17:23;102170.34;;;9.71;80.44
64095;BME280;50353;51.420;5.682;2023-05-17T02:19:48;102171.59;;;9.59;80.36
64095;BME280;50353;51.420;5.682;2023-05-17T02:22:14;102172.63;;;9.80;79.75
64095;BME280;50353;51.420;5.682;2023-05-17T02:24:39;102174.19;;;9.86;78.80
64095;BME280;50353;51.420;5.682;2023-05-17T02:27:04;102172.97;;;9.71;79.54
64095;BME280;50353;51.420;5.682;2023-05-17T02:29:30;102175.69;;;9.68;79.16
64095;BME280;50353;51.420;5.682;2023-05-17T02:31:55;102179.94;;;9.72;80.31
64095;BME280;50353;51.420;5.682;2023-05-17T02:34:21;102177.75;;;9.59;79.42
64095;BME280;50353;51.420;5.682;2023-05-17T02:36:46;102182.28;;;9.29;81.25
64095;BME280;50353;51.420;5.682;2023-05-17T02:39:12;102180.56;;;9.55;79.96
64095;BME280;50353;51.420;5.682;2023-05-17T02:41:38;102181.84;;;9.68;79.76
64095;BME280;50353;51.420;5.682;2023-05-17T02:44:03;102179.59;;;9.30;80.21
64095;BME280;50353;51.420;5.682;2023-05-17T02:46:29;102185.69;;;9.33;80.10
64095;BME280;50353;51.420;5.682;2023-05-17T02:48:54;102192.63;;;9.62;79.37
64095;BME280;50353;51.420;5.682;2023-05-17T02:51:20;102192.84;;;9.56;78.19
64095;BME280;50353;51.420;5.682;2023-05-17T02:53:45;102189.34;;;9.28;78.36
64095;BME280;50353;51.420;5.682;2023-05-17T02:56:10;102189.91;;;9.38;78.82
64095;BME280;50353;51.420;5.682;2023-05-17T02:58:36;102192.84;;;9.56;79.41
64095;BME280;50353;51.420;5.682;2023-05-17T03:01:01;102190.34;;;9.51;79.46
64095;BME280;50353;51.420;5.682;2023-05-17T03:03:26;102192.63;;;9.35;80.39
64095;BME280;50353;51.420;5.682;2023-05-17T03:05:52;102193.50;;;9.36;80.37
64095;BME280;50353;51.420;5.682;2023-05-17T03:08:17;102205.06;;;9.32;81.11
64095;BME280;50353;51.420;5.682;2023-05-17T03:10:42;102208.31;;;9.40;80.37
64095;BME280;50353;51.420;5.682;2023-05-17T03:13:08;102204.00;;;9.37;81.66
64095;BME280;50353;51.420;5.682;2023-05-17T03:15:33;102214.31;;;9.45;82.27
64095;BME280;50353;51.420;5.682;2023-05-17T03:17:58;102198.44;;;9.46;82.64
64095;BME280;50353;51.420;5.682;2023-05-17T03:20:24;102210.63;;;10.01;82.21
64095;BME280;50353;51.420;5.682;2023-05-17T03:22:50;102210.13;;;10.15;82.34
64095;BME280;50353;51.420;5.682;2023-05-17T03:25:15;102214.66;;;10.11;81.89
64095;BME280;50353;51.420;5.682;2023-05-17T03:27:40;102219.13;;;9.84;84.20
64095;BME280;50353;51.420;5.682;2023-05-17T03:30:06;102209.47;;;10.34;82.43
64095;BME280;50353;51.420;5.682;2023-05-17T03:32:32;102218.31;;;10.32;83.08
64095;BME280;50353;51.420;5.682;2023-05-17T03:34:57;102221.78;;;10.33;83.30
64095;BME280;50353;51.420;5.682;2023-05-17T03:37:22;102220.34;;;10.49;83.08
64095;BME280;50353;51.420;5.682;2023-05-17T03:39:48;102226.78;;;10.42;83.95
64095;BME280;50353;51.420;5.682;2023-05-17T03:42:13;102217.13;;;10.41;84.32
64095;BME280;50353;51.420;5.682;2023-05-17T03:44:39;102225.31;;;10.34;83.80
64095;BME280;50353;51.420;5.682;2023-05-17T03:47:05;102221.84;;;10.31;84.96
64095;BME280;50353;51.420;5.682;2023-05-17T03:49:30;102225.47;;;10.29;85.32
64095;BME280;50353;51.420;5.682;2023-05-17T03:51:55;102229.38;;;9.93;87.10
64095;BME280;50353;51.420;5.682;2023-05-17T03:54:21;102229.31;;;10.20;86.66
64095;BME280;50353;51.420;5.682;2023-05-17T03:56:46;102227.41;;;10.24;86.13
64095;BME280;50353;51.420;5.682;2023-05-17T03:59:13;102230.22;;;10.19;86.25
64095;BME280;50353;51.420;5.682;2023-05-17T04:01:39;102226.69;;;10.20;86.25
64095;BME280;50353;51.420;5.682;2023-05-17T04:04:04;102228.31;;;10.48;85.24
64095;BME280;50353;51.420;5.682;2023-05-17T04:06:30;102233.22;;;10.59;84.88
64095;BME280;50353;51.420;5.682;2023-05-17T04:08:55;102241.03;;;10.38;84.97
64095;BME280;50353;51.420;5.682;2023-05-17T04:11:20;102243.66;;;10.62;84.07
64095;BME280;50353;51.420;5.682;2023-05-17T04:13:48;102241.16;;;10.59;83.30
64095;BME280;50353;51.420;5.682;2023-05-17T04:16:13;102240.22;;;10.60;83.12
64095;BME280;50353;51.420;5.682;2023-05-17T04:18:39;102247.66;;;10.25;84.58
64095;BME280;50353;51.420;5.682;2023-05-17T04:21:05;102250.03;;;10.32;83.70
64095;BME280;50353;51.420;5.682;2023-05-17T04:23:32;102256.88;;;10.38;84.20
64095;BME280;50353;51.420;5.682;2023-05-17T04:25:58;102256.84;;;10.40;83.80
64095;BME280;50353;51.420;5.682;2023-05-17T04:28:24;102257.81;;;10.37;84.41
64095;BME280;50353;51.420;5.682;2023-05-17T04:30:50;102259.84;;;10.54;84.02
64095;BME280;50353;51.420;5.682;2023-05-17T04:33:15;102257.78;;;10.62;83.75
64095;BME280;50353;51.420;5.682;2023-05-17T04:35:41;102261.84;;;10.47;83.65
64095;BME280;50353;51.420;5.682;2023-05-17T04:38:07;102266.34;;;10.69;83.40
64095;BME280;50353;51.420;5.682;2023-05-17T04:40:33;102268.66;;;11.01;82.86
64095;BME280;50353;51.420;5.682;2023-05-17T04:42:58;102266.72;;;11.06;81.83
64095;BME280;50353;51.420;5.682;2023-05-17T04:45:23;102262.69;;;11.18;81.45
64095;BME280;50353;51.420;5.682;2023-05-17T04:47:49;102273.47;;;11.13;82.28
64095;BME280;50353;51.420;5.682;2023-05-17T04:50:15;102277.00;;;10.90;83.26
64095;BME280;50353;51.420;5.682;2023-05-17T04:52:41;102277.16;;;10.85;84.25
64095;BME280;50353;51.420;5.682;2023-05-17T04:55:07;102281.97;;;10.75;85.18
64095;BME280;50353;51.420;5.682;2023-05-17T04:57:32;102286.50;;;10.95;85.39
64095;BME280;50353;51.420;5.682;2023-05-17T04:59:57;102284.59;;;10.99;84.64
64095;BME280;50353;51.420;5.682;2023-05-17T05:02:23;102284.25;;;11.30;83.83
64095;BME280;50353;51.420;5.682;2023-05-17T05:04:48;102287.75;;;11.31;83.50
64095;BME280;50353;51.420;5.682;2023-05-17T05:07:13;102285.03;;;11.55;83.76
64095;BME280;50353;51.420;5.682;2023-05-17T05:09:38;102290.09;;;11.61;83.16
64095;BME280;50353;51.420;5.682;2023-05-17T05:12:04;102293.38;;;11.45;84.20
64095;BME280;50353;51.420;5.682;2023-05-17T05:14:30;102299.44;;;11.47;84.21
64095;BME280;50353;51.420;5.682;2023-05-17T05:16:55;102302.81;;;11.73;82.85
64095;BME280;50353;51.420;5.682;2023-05-17T05:19:20;102308.13;;;11.73;82.90
64095;BME280;50353;51.420;5.682;2023-05-17T05:21:45;102308.94;;;11.75;83.72
64095;BME280;50353;51.420;5.682;2023-05-17T05:24:11;102316.38;;;11.43;84.48
64095;BME280;50353;51.420;5.682;2023-05-17T05:26:36;102311.16;;;11.84;84.14
64095;BME280;50353;51.420;5.682;2023-05-17T05:29:02;102313.88;;;12.05;82.72
64095;BME280;50353;51.420;5.682;2023-05-17T05:31:27;102307.59;;;11.86;84.84
64095;BME280;50353;51.420;5.682;2023-05-17T05:33:53;102318.13;;;12.30;82.83
64095;BME280;50353;51.420;5.682;2023-05-17T05:36:18;102309.66;;;12.22;83.07
64095;BME280;50353;51.420;5.682;2023-05-17T05:38:43;102320.50;;;11.95;84.82
64095;BME280;50353;51.420;5.682;2023-05-17T05:41:08;102318.81;;;11.92;84.47
64095;BME280;50353;51.420;5.682;2023-05-17T05:43:34;102325.31;;;11.63;85.62
64095;BME280;50353;51.420;5.682;2023-05-17T05:46:01;102338.88;;;11.33;86.82
64095;BME280;50353;51.420;5.682;2023-05-17T05:48:26;102328.53;;;11.71;85.33
64095;BME280;50353;51.420;5.682;2023-05-17T05:50:52;102338.44;;;11.66;86.04
64095;BME280;50353;51.420;5.682;2023-05-17T05:53:17;102341.19;;;11.63;86.88
64095;BME280;50353;51.420;5.682;2023-05-17T05:55:42;102341.91;;;11.89;85.65
64095;BME280;50353;51.420;5.682;2023-05-17T05:58:08;102345.75;;;11.81;86.05
64095;BME280;50353;51.420;5.682;2023-05-17T06:00:34;102351.72;;;11.87;86.47
64095;BME280;50353;51.420;5.682;2023-05-17T06:02:59;102352.78;;;12.25;84.14
64095;BME280;50353;51.420;5.682;2023-05-17T06:05:25;102359.66;;;11.42;88.06
64095;BME280;50353;51.420;5.682;2023-05-17T06:07:50;102359.88;;;12.04;86.13
64095;BME280;50353;51.420;5.682;2023-05-17T06:10:16;102360.03;;;12.42;84.10
64095;BME280;50353;51.420;5.682;2023-05-17T06:12:41;102364.84;;;11.90;85.35
64095;BME280;50353;51.420;5.682;2023-05-17T06:15:07;102371.06;;;11.89;85.50
64095;BME280;50353;51.420;5.682;2023-05-17T06:17:32;102362.06;;;12.56;83.25
64095;BME280;50353;51.420;5.682;2023-05-17T06:19:57;102361.56;;;12.27;83.36
64095;BME280;50353;51.420;5.682;2023-05-17T06:22:23;102371.31;;;11.82;85.62
64095;BME280;50353;51.420;5.682;2023-05-17T06:24:48;102372.00;;;12.10;83.78
64095;BME280;50353;51.420;5.682;2023-05-17T06:27:14;102369.81;;;12.40;82.44
64095;BME280;50353;51.420;5.682;2023-05-17T06:29:39;102367.91;;;13.42;78.12
64095;BME280;50353;51.420;5.682;2023-05-17T06:32:05;102376.38;;;13.87;76.17
64095;BME280;50353;51.420;5.682;2023-05-17T06:34:30;102374.13;;;13.97;74.23
64095;BME280;50353;51.420;5.682;2023-05-17T06:36:55;102384.66;;;13.24;78.48
64095;BME280;50353;51.420;5.682;2023-05-17T06:39:21;102378.03;;;13.90;73.64
64095;BME280;50353;51.420;5.682;2023-05-17T06:41:46;102382.97;;;13.61;74.56
64095;BME280;50353;51.420;5.682;2023-05-17T06:44:11;102379.84;;;13.52;75.24
64095;BME280;50353;51.420;5.682;2023-05-17T06:46:37;102387.03;;;12.92;78.54
64095;BME280;50353;51.420;5.682;2023-05-17T06:49:02;102386.88;;;12.95;77.27
64095;BME280;50353;51.420;5.682;2023-05-17T06:51:28;102392.25;;;12.93;76.86
64095;BME280;50353;51.420;5.682;2023-05-17T06:53:53;102389.97;;;13.05;75.22
64095;BME280;50353;51.420;5.682;2023-05-17T06:56:18;102397.25;;;13.77;74.15
64095;BME280;50353;51.420;5.682;2023-05-17T06:58:44;102386.63;;;14.47;67.56
64095;BME280;50353;51.420;5.682;2023-05-17T07:01:09;102390.97;;;14.67;66.96
64095;BME280;50353;51.420;5.682;2023-05-17T07:03:35;102394.91;;;14.76;65.46
64095;BME280;50353;51.420;5.682;2023-05-17T07:06:00;102397.19;;;14.31;63.58
64095;BME280;50353;51.420;5.682;2023-05-17T07:08:26;102393.53;;;14.16;65.00
64095;BME280;50353;51.420;5.682;2023-05-17T07:10:52;102393.31;;;14.39;61.96
64095;BME280;50353;51.420;5.682;2023-05-17T07:13:17;102390.06;;;14.67;58.59
64095;BME280;50353;51.420;5.682;2023-05-17T07:15:43;102392.78;;;15.16;58.69
64095;BME280;50353;51.420;5.682;2023-05-17T07:18:08;102397.78;;;15.54;57.15
64095;BME280;50353;51.420;5.682;2023-05-17T07:20:34;102398.06;;;14.67;58.15
64095;BME280;50353;51.420;5.682;2023-05-17T07:22:59;102403.00;;;14.75;58.63
64095;BME280;50353;51.420;5.682;2023-05-17T07:25:25;102405.19;;;15.65;57.29
64095;BME280;50353;51.420;5.682;2023-05-17T07:27:50;102408.69;;;15.98;56.05
64095;BME280;50353;51.420;5.682;2023-05-17T07:30:15;102409.38;;;15.85;55.22
64095;BME280;50353;51.420;5.682;2023-05-17T07:32:41;102399.81;;;16.28;56.12
64095;BME280;50353;51.420;5.682;2023-05-17T07:35:06;102406.69;;;16.32;55.85
64095;BME280;50353;51.420;5.682;2023-05-17T07:37:31;102418.78;;;15.93;57.20
64095;BME280;50353;51.420;5.682;2023-05-17T07:39:57;102413.91;;;16.15;56.36
64095;BME280;50353;51.420;5.682;2023-05-17T07:42:22;102402.59;;;16.71;55.21
64095;BME280;50353;51.420;5.682;2023-05-17T07:44:47;102409.56;;;16.88;50.20
64095;BME280;50353;51.420;5.682;2023-05-17T07:47:14;102412.38;;;16.42;50.40
64095;BME280;50353;51.420;5.682;2023-05-17T07:49:39;102416.56;;;17.19;50.08
64095;BME280;50353;51.420;5.682;2023-05-17T07:52:05;102417.97;;;16.37;49.18
64095;BME280;50353;51.420;5.682;2023-05-17T07:54:30;102418.75;;;15.29;50.95
64095;BME280;50353;51.420;5.682;2023-05-17T07:56:55;102423.13;;;15.94;50.99
64095;BME280;50353;51.420;5.682;2023-05-17T07:59:21;102425.19;;;15.25;52.05
64095;BME280;50353;51.420;5.682;2023-05-17T08:01:47;102429.88;;;14.70;53.65
64095;BME280;50353;51.420;5.682;2023-05-17T08:04:12;102435.41;;;15.16;53.09
64095;BME280;50353;51.420;5.682;2023-05-17T08:06:41;102435.28;;;15.35;52.28
64095;BME280;50353;51.420;5.682;2023-05-17T08:09:07;102438.22;;;15.63;52.11
64095;BME280;50353;51.420;5.682;2023-05-17T08:11:32;102435.16;;;17.21;48.90
64095;BME280;50353;51.420;5.682;2023-05-17T08:13:59;102433.13;;;17.24;49.06
64095;BME280;50353;51.420;5.682;2023-05-17T08:16:24;102436.31;;;15.97;53.25
64095;BME280;50353;51.420;5.682;2023-05-17T08:18:50;102439.84;;;15.81;52.57
64095;BME280;50353;51.420;5.682;2023-05-17T08:21:15;102432.56;;;14.86;54.39
64095;BME280;50353;51.420;5.682;2023-05-17T08:23:41;102437.91;;;15.19;54.22
64095;BME280;50353;51.420;5.682;2023-05-17T08:26:06;102443.34;;;15.34;53.81
64095;BME280;50353;51.420;5.682;2023-05-17T08:28:31;102438.03;;;15.00;53.95
64095;BME280;50353;51.420;5.682;2023-05-17T08:30:57;102436.13;;;15.52;52.93
64095;BME280;50353;51.420;5.682;2023-05-17T08:33:22;102427.53;;;15.95;50.68
64095;BME280;50353;51.420;5.682;2023-05-17T08:35:49;102435.31;;;15.18;52.31
64095;BME280;50353;51.420;5.682;2023-05-17T08:38:17;102437.28;;;14.46;53.76
64095;BME280;50353;51.420;5.682;2023-05-17T08:40:42;102440.25;;;14.92;53.48
64095;BME280;50353;51.420;5.682;2023-05-17T08:43:10;102448.09;;;15.77;51.18
64095;BME280;50353;51.420;5.682;2023-05-17T08:45:37;102433.16;;;16.96;50.03
64095;BME280;50353;51.420;5.682;2023-05-17T08:48:03;102445.97;;;15.99;49.44
64095;BME280;50353;51.420;5.682;2023-05-17T08:50:30;102433.88;;;16.69;47.78
64095;BME280;50353;51.420;5.682;2023-05-17T08:52:57;102436.84;;;17.51;46.64
64095;BME280;50353;51.420;5.682;2023-05-17T08:55:22;102437.84;;;17.90;44.60
64095;BME280;50353;51.420;5.682;2023-05-17T08:57:49;102443.25;;;17.48;46.40
64095;BME280;50353;51.420;5.682;2023-05-17T09:00:18;102437.31;;;16.85;45.09
64095;BME280;50353;51.420;5.682;2023-05-17T09:02:45;102438.38;;;17.55;45.41
64095;BME280;50353;51.420;5.682;2023-05-17T09:05:12;102432.13;;;18.23;46.94
64095;BME280;50353;51.420;5.682;2023-05-17T09:07:37;102438.50;;;18.74;44.97
64095;BME280;50353;51.420;5.682;2023-05-17T09:10:03;102437.75;;;18.06;44.14
64095;BME280;50353;51.420;5.682;2023-05-17T09:12:33;102442.25;;;18.05;43.09
64095;BME280;50353;51.420;5.682;2023-05-17T09:15:16;102450.53;;;17.17;45.68
64095;BME280;50353;51.420;5.682;2023-05-17T09:17:42;102448.03;;;16.25;48.48
64095;BME280;50353;51.420;5.682;2023-05-17T09:20:23;102447.94;;;16.26;46.88
64095;BME280;50353;51.420;5.682;2023-05-17T09:22:50;102452.00;;;16.33;47.01
64095;BME280;50353;51.420;5.682;2023-05-17T09:25:20;102442.91;;;16.05;49.41
64095;BME280;50353;51.420;5.682;2023-05-17T09:27:50;102446.25;;;15.77;48.27
64095;BME280;50353;51.420;5.682;2023-05-17T09:30:16;102440.91;;;16.55;47.16
64095;BME280;50353;51.420;5.682;2023-05-17T09:32:42;102444.59;;;17.12;46.20
64095;BME280;50353;51.420;5.682;2023-05-17T09:35:10;102438.84;;;17.33;44.10
64095;BME280;50353;51.420;5.682;2023-05-17T09:37:36;102446.31;;;17.28;44.75
64095;BME280;50353;51.420;5.682;2023-05-17T09:40:02;102444.91;;;16.63;47.06
64095;BME280;50353;51.420;5.682;2023-05-17T09:42:33;102442.81;;;17.69;44.45
64095;BME280;50353;51.420;5.682;2023-05-17T09:45:03;102443.22;;;17.90;45.39
64095;BME280;50353;51.420;5.682;2023-05-17T09:47:29;102446.81;;;18.97;43.61
64095;BME280;50353;51.420;5.682;2023-05-17T09:49:57;102444.91;;;17.78;44.78
64095;BME280;50353;51.420;5.682;2023-05-17T09:52:25;102447.28;;;17.27;47.18
64095;BME280;50353;51.420;5.682;2023-05-17T09:54:57;102446.53;;;18.74;45.85
64095;BME280;50353;51.420;5.682;2023-05-17T09:57:25;102438.50;;;18.61;45.91
64095;BME280;50353;51.420;5.682;2023-05-17T09:59:54;102438.97;;;19.06;44.52
64095;BME280;50353;51.420;5.682;2023-05-17T10:02:22;102439.53;;;18.46;45.31
64095;BME280;50353;51.420;5.682;2023-05-17T10:04:51;102439.94;;;19.18;41.95
64095;BME280;50353;51.420;5.682;2023-05-17T10:07:18;102438.59;;;18.85;42.76
64095;BME280;50353;51.420;5.682;2023-05-17T10:09:46;102440.22;;;18.62;42.89
64095;BME280;50353;51.420;5.682;2023-05-17T10:12:15;102432.94;;;18.64;39.85
64095;BME280;50353;51.420;5.682;2023-05-17T10:14:42;102432.91;;;18.26;42.95
64095;BME280;50353;51.420;5.682;2023-05-17T10:17:08;102443.09;;;18.06;41.37
64095;BME280;50353;51.420;5.682;2023-05-17T10:19:35;102443.72;;;17.55;42.37
64095;BME280;50353;51.420;5.682;2023-05-17T10:22:01;102443.13;;;18.98;42.23
64095;BME280;50353;51.420;5.682;2023-05-17T10:24:27;102440.72;;;19.32;42.11
64095;BME280;50353;51.420;5.682;2023-05-17T10:26:56;102447.47;;;19.87;38.20
64095;BME280;50353;51.420;5.682;2023-05-17T10:29:22;102444.94;;;19.23;37.20
64095;BME280;50353;51.420;5.682;2023-05-17T10:31:48;102456.72;;;18.56;38.25
64095;BME280;50353;51.420;5.682;2023-05-17T10:34:18;102450.50;;;19.46;36.65
64095;BME280;50353;51.420;5.682;2023-05-17T10:36:44;102442.34;;;18.44;38.35
64095;BME280;50353;51.420;5.682;2023-05-17T10:39:10;102444.13;;;19.47;36.92
64095;BME280;50353;51.420;5.682;2023-05-17T10:41:39;102438.09;;;20.17;40.33
64095;BME280;50353;51.420;5.682;2023-05-17T10:44:06;102433.06;;;20.13;36.68
64095;BME280;50353;51.420;5.682;2023-05-17T10:46:32;102431.53;;;20.33;36.21
64095;BME280;50353;51.420;5.682;2023-05-17T10:48:59;102421.00;;;19.46;37.81
64095;BME280;50353;51.420;5.682;2023-05-17T10:51:29;102423.97;;;19.54;37.87
64095;BME280;50353;51.420;5.682;2023-05-17T10:56:27;102426.72;;;20.14;37.46
64095;BME280;50353;51.420;5.682;2023-05-17T10:59:18;102418.22;;;20.31;37.66
64095;BME280;50353;51.420;5.682;2023-05-17T11:02:07;102406.91;;;20.39;39.30
64095;BME280;50353;51.420;5.682;2023-05-17T11:04:37;102413.47;;;20.35;39.26
64095;BME280;50353;51.420;5.682;2023-05-17T11:09:49;102413.66;;;19.61;38.18
64095;BME280;50353;51.420;5.682;2023-05-17T11:12:27;102407.22;;;20.23;35.89
64095;BME280;50353;51.420;5.682;2023-05-17T11:14:53;102408.97;;;20.35;38.09
64095;BME280;50353;51.420;5.682;2023-05-17T11:20:11;102396.13;;;20.86;33.66
64095;BME280;50353;51.420;5.682;2023-05-17T11:22:57;102395.00;;;21.34;34.31
64095;BME280;50353;51.420;5.682;2023-05-17T11:25:26;102397.47;;;20.80;36.16
64095;BME280;50353;51.420;5.682;2023-05-17T11:27:52;102398.06;;;21.18;34.81
64095;BME280;50353;51.420;5.682;2023-05-17T11:30:28;102402.28;;;21.43;33.69
64095;BME280;50353;51.420;5.682;2023-05-17T11:33:03;102409.97;;;19.37;37.38
64095;BME280;50353;51.420;5.682;2023-05-17T11:35:34;102404.47;;;19.63;36.89
64095;BME280;50353;51.420;5.682;2023-05-17T11:40:45;102394.28;;;21.09;35.22
64095;BME280;50353;51.420;5.682;2023-05-17T11:43:19;102404.50;;;19.26;37.00
64095;BME280;50353;51.420;5.682;2023-05-17T11:45:47;102401.41;;;20.52;37.03
64095;BME280;50353;51.420;5.682;2023-05-17T11:48:13;102396.75;;;20.78;34.69
64095;BME280;50353;51.420;5.682;2023-05-17T11:50:40;102394.78;;;20.80;35.39
64095;BME280;50353;51.420;5.682;2023-05-17T11:53:07;102398.97;;;20.37;35.17
64095;BME280;50353;51.420;5.682;2023-05-17T11:55:49;102388.63;;;20.55;35.96
64095;BME280;50353;51.420;5.682;2023-05-17T11:58:23;102396.88;;;20.30;36.86
64095;BME280;50353;51.420;5.682;2023-05-17T12:00:55;102405.25;;;19.65;36.04
64095;BME280;50353;51.420;5.682;2023-05-17T12:03:23;102407.84;;;19.78;36.36
64095;BME280;50353;51.420;5.682;2023-05-17T12:06:00;102396.84;;;19.70;37.20
64095;BME280;50353;51.420;5.682;2023-05-17T12:08:27;102399.56;;;20.30;36.23
64095;BME280;50353;51.420;5.682;2023-05-17T12:10:52;102402.34;;;19.92;39.70
64095;BME280;50353;51.420;5.682;2023-05-17T12:13:19;102399.59;;;20.52;37.68
64095;BME280;50353;51.420;5.682;2023-05-17T12:15:50;102405.50;;;20.22;40.17
64095;BME280;50353;51.420;5.682;2023-05-17T12:18:17;102396.38;;;20.71;33.87
64095;BME280;50353;51.420;5.682;2023-05-17T12:20:57;102395.41;;;20.84;36.42
64095;BME280;50353;51.420;5.682;2023-05-17T12:26:02;102393.63;;;20.60;35.75
64095;BME280;50353;51.420;5.682;2023-05-17T12:28:27;102392.72;;;20.37;36.82
64095;BME280;50353;51.420;5.682;2023-05-17T12:30:54;102391.13;;;20.81;35.56
64095;BME280;50353;51.420;5.682;2023-05-17T12:33:22;102400.75;;;20.25;35.05
64095;BME280;50353;51.420;5.682;2023-05-17T12:35:48;102394.38;;;20.62;36.76
64095;BME280;50353;51.420;5.682;2023-05-17T12:38:14;102402.78;;;20.10;36.56
64095;BME280;50353;51.420;5.682;2023-05-17T12:40:39;102386.31;;;20.51;34.69
64095;BME280;50353;51.420;5.682;2023-05-17T12:43:05;102387.69;;;21.02;34.32
64095;BME280;50353;51.420;5.682;2023-05-17T12:45:32;102394.41;;;21.19;34.31
64095;BME280;50353;51.420;5.682;2023-05-17T12:47:58;102394.56;;;20.36;35.78
64095;BME280;50353;51.420;5.682;2023-05-17T12:50:27;102400.13;;;19.49;35.47
64095;BME280;50353;51.420;5.682;2023-05-17T12:52:52;102391.63;;;20.28;36.31
64095;BME280;50353;51.420;5.682;2023-05-17T12:55:18;102390.59;;;19.82;34.86
64095;BME280;50353;51.420;5.682;2023-05-17T12:57:53;102387.97;;;19.93;35.13
64095;BME280;50353;51.420;5.682;2023-05-17T13:00:19;102383.56;;;19.92;36.37
64095;BME280;50353;51.420;5.682;2023-05-17T13:02:45;102387.66;;;20.56;36.42
64095;BME280;50353;51.420;5.682;2023-05-17T13:05:16;102381.38;;;20.33;37.94
64095;BME280;50353;51.420;5.682;2023-05-17T13:07:48;102379.09;;;21.31;35.89
64095;BME280;50353;51.420;5.682;2023-05-17T13:10:24;102389.78;;;20.29;34.73